sensor_id;sensor_type;location;lat;lon;timestamp;temperature;humidity
65374;SHT31;52070;53.760;9.678;2024-03-06T00:02:26;4.55;86.19
65374;SHT31;52070;53.760;9.678;2024-03-06T00:04:53;4.45;86.35
65374;SHT31;52070;53.760;9.678;2024-03-06T00:07:20;4.62;86.33
65374;SHT31;52070;53.760;9.678;2024-03-06T00:09:49;4.58;85.95
65374;SHT31;52070;53.760;9.678;2024-03-06T00:12:16;4.53;85.89
65374;SHT31;52070;53.760;9.678;2024-03-06T00:14:44;4.57;85.92
65374;SHT31;52070;53.760;9.678;2024-03-06T00:17:11;4.45;85.97
65374;SHT31;52070;53.760;9.678;2024-03-06T00:19:38;4.48;86.16
65374;SHT31;52070;53.760;9.678;2024-03-06T00:22:05;4.58;86.03
65374;SHT31;52070;53.760;9.678;2024-03-06T00:24:32;4.55;85.79
65374;SHT31;52070;53.760;9.678;2024-03-06T00:27:00;4.51;85.76
65374;SHT31;52070;53.760;9.678;2024-03-06T00:29:27;4.51;85.64
65374;SHT31;52070;53.760;9.678;2024-03-06T00:31:54;4.45;85.74
65374;SHT31;52070;53.760;9.678;2024-03-06T00:34:21;4.43;85.84
65374;SHT31;52070;53.760;9.678;2024-03-06T00:36:48;4.43;85.90
65374;SHT31;52070;53.760;9.678;2024-03-06T00:39:15;4.44;85.77
65374;SHT31;52070;53.760;9.678;2024-03-06T00:41:42;4.41;85.85
65374;SHT31;52070;53.760;9.678;2024-03-06T00:44:10;4.40;85.92
65374;SHT31;52070;53.760;9.678;2024-03-06T00:46:38;4.57;85.80
65374;SHT31;52070;53.760;9.678;2024-03-06T00:49:05;4.53;85.52
65374;SHT31;52070;53.760;9.678;2024-03-06T00:51:32;4.61;85.24
65374;SHT31;52070;53.760;9.678;2024-03-06T00:54:02;4.51;85.26
65374;SHT31;52070;53.760;9.678;2024-03-06T00:56:30;4.54;85.33
65374;SHT31;52070;53.760;9.678;2024-03-06T00:58:57;4.51;85.27
65374;SHT31;52070;53.760;9.678;2024-03-06T01:01:26;4.43;84.95
65374;SHT31;52070;53.760;9.678;2024-03-06T01:03:53;4.41;85.07
65374;SHT31;52070;53.760;9.678;2024-03-06T01:06:21;4.38;84.89
65374;SHT31;52070;53.760;9.678;2024-03-06T01:08:48;4.41;84.92
65374;SHT31;52070;53.760;9.678;2024-03-06T01:11:15;4.38;84.98
65374;SHT31;52070;53.760;9.678;2024-03-06T01:13:42;4.33;85.03
65374;SHT31;52070;53.760;9.678;2024-03-06T01:16:08;4.41;85.00
65374;SHT31;52070;53.760;9.678;2024-03-06T01:18:37;4.38;84.77
65374;SHT31;52070;53.760;9.678;2024-03-06T01:21:04;4.36;84.78
65374;SHT31;52070;53.760;9.678;2024-03-06T01:23:31;4.34;84.72
65374;SHT31;52070;53.760;9.678;2024-03-06T01:25:58;4.33;84.97
65374;SHT31;52070;53.760;9.678;2024-03-06T01:28:25;4.29;84.97
65374;SHT31;52070;53.760;9.678;2024-03-06T01:30:52;4.27;84.74
65374;SHT31;52070;53.760;9.678;2024-03-06T01:33:20;4.21;84.89
65374;SHT31;52070;53.760;9.678;2024-03-06T01:35:49;4.21;85.19
65374;SHT31;52070;53.760;9.678;2024-03-06T01:38:15;4.18;85.40
65374;SHT31;52070;53.760;9.678;2024-03-06T01:40:43;4.20;85.35
65374;SHT31;52070;53.760;9.678;2024-03-06T01:43:19;4.20;85.22
65374;SHT31;52070;53.760;9.678;2024-03-06T01:45:47;4.31;85.04
65374;SHT31;52070;53.760;9.678;2024-03-06T01:48:15;4.31;84.95
65374;SHT31;52070;53.760;9.678;2024-03-06T01:50:42;4.23;84.98
65374;SHT31;52070;53.760;9.678;2024-03-06T01:53:12;4.24;84.99
65374;SHT31;52070;53.760;9.678;2024-03-06T01:55:39;4.24;85.19
65374;SHT31;52070;53.760;9.678;2024-03-06T01:58:06;4.29;85.01
65374;SHT31;52070;53.760;9.678;2024-03-06T02:00:35;4.16;85.16
65374;SHT31;52070;53.760;9.678;2024-03-06T02:03:03;4.16;85.47
65374;SHT31;52070;53.760;9.678;2024-03-06T02:05:30;4.20;85.50
65374;SHT31;52070;53.760;9.678;2024-03-06T02:07:58;4.27;85.36
65374;SHT31;52070;53.760;9.678;2024-03-06T02:10:27;4.18;85.33
65374;SHT31;52070;53.760;9.678;2024-03-06T02:12:54;4.23;85.61
65374;SHT31;52070;53.760;9.678;2024-03-06T02:15:22;4.18;85.55
65374;SHT31;52070;53.760;9.678;2024-03-06T02:17:49;4.20;85.65
65374;SHT31;52070;53.760;9.678;2024-03-06T02:20:16;4.29;85.48
65374;SHT31;52070;53.760;9.678;2024-03-06T02:22:45;4.21;85.32
65374;SHT31;52070;53.760;9.678;2024-03-06T02:25:12;4.21;85.38
65374;SHT31;52070;53.760;9.678;2024-03-06T02:27:40;4.20;85.43
65374;SHT31;52070;53.760;9.678;2024-03-06T02:30:08;4.27;85.51
65374;SHT31;52070;53.760;9.678;2024-03-06T02:32:35;4.17;85.56
65374;SHT31;52070;53.760;9.678;2024-03-06T02:35:02;4.27;85.54
65374;SHT31;52070;53.760;9.678;2024-03-06T02:37:34;4.18;85.62
65374;SHT31;52070;53.760;9.678;2024-03-06T02:40:03;4.17;85.72
65374;SHT31;52070;53.760;9.678;2024-03-06T02:42:32;4.18;85.78
65374;SHT31;52070;53.760;9.678;2024-03-06T02:45:00;4.18;85.70
65374;SHT31;52070;53.760;9.678;2024-03-06T02:47:27;4.03;85.89
65374;SHT31;52070;53.760;9.678;2024-03-06T02:49:54;4.01;86.35
65374;SHT31;52070;53.760;9.678;2024-03-06T02:52:21;4.04;86.33
65374;SHT31;52070;53.760;9.678;2024-03-06T02:54:48;4.04;86.36
65374;SHT31;52070;53.760;9.678;2024-03-06T02:57:17;4.07;86.28
65374;SHT31;52070;53.760;9.678;2024-03-06T02:59:43;4.06;86.13
65374;SHT31;52070;53.760;9.678;2024-03-06T03:02:10;4.01;86.25
65374;SHT31;52070;53.760;9.678;2024-03-06T03:04:38;3.99;86.43
65374;SHT31;52070;53.760;9.678;2024-03-06T03:07:05;4.06;86.55
65374;SHT31;52070;53.760;9.678;2024-03-06T03:09:32;4.10;86.37
65374;SHT31;52070;53.760;9.678;2024-03-06T03:12:01;4.01;86.29
65374;SHT31;52070;53.760;9.678;2024-03-06T03:14:30;4.01;86.42
65374;SHT31;52070;53.760;9.678;2024-03-06T03:17:00;4.00;86.52
65374;SHT31;52070;53.760;9.678;2024-03-06T03:19:27;4.01;86.65
65374;SHT31;52070;53.760;9.678;2024-03-06T03:21:55;4.07;86.60
65374;SHT31;52070;53.760;9.678;2024-03-06T03:24:22;4.04;86.39
65374;SHT31;52070;53.760;9.678;2024-03-06T03:26:51;4.03;86.38
65374;SHT31;52070;53.760;9.678;2024-03-06T03:29:18;4.01;86.36
65374;SHT31;52070;53.760;9.678;2024-03-06T03:31:48;4.06;86.23
65374;SHT31;52070;53.760;9.678;2024-03-06T03:34:15;3.94;86.31
65374;SHT31;52070;53.760;9.678;2024-03-06T03:36:42;3.99;86.50
65374;SHT31;52070;53.760;9.678;2024-03-06T03:39:10;3.93;86.47
65374;SHT31;52070;53.760;9.678;2024-03-06T03:41:45;3.91;86.59
65374;SHT31;52070;53.760;9.678;2024-03-06T03:44:13;3.99;86.49
65374;SHT31;52070;53.760;9.678;2024-03-06T03:46:40;3.99;86.42
65374;SHT31;52070;53.760;9.678;2024-03-06T03:49:08;4.06;86.24
65374;SHT31;52070;53.760;9.678;2024-03-06T03:51:35;4.10;85.87
65374;SHT31;52070;53.760;9.678;2024-03-06T03:54:03;4.09;85.70
65374;SHT31;52070;53.760;9.678;2024-03-06T03:56:30;4.07;85.64
65374;SHT31;52070;53.760;9.678;2024-03-06T03:58:57;4.04;85.69
65374;SHT31;52070;53.760;9.678;2024-03-06T04:01:25;4.10;85.60
65374;SHT31;52070;53.760;9.678;2024-03-06T04:03:52;4.09;85.42
65374;SHT31;52070;53.760;9.678;2024-03-06T04:06:20;4.03;85.50
65374;SHT31;52070;53.760;9.678;2024-03-06T04:08:47;3.97;85.65
65374;SHT31;52070;53.760;9.678;2024-03-06T04:11:14;3.97;85.74
65374;SHT31;52070;53.760;9.678;2024-03-06T04:13:43;3.94;85.54
65374;SHT31;52070;53.760;9.678;2024-03-06T04:16:10;3.99;85.68
65374;SHT31;52070;53.760;9.678;2024-03-06T04:18:37;4.00;85.32
65374;SHT31;52070;53.760;9.678;2024-03-06T04:21:04;4.01;85.05
65374;SHT31;52070;53.760;9.678;2024-03-06T04:23:33;3.93;85.08
65374;SHT31;52070;53.760;9.678;2024-03-06T04:26:01;3.91;85.16
65374;SHT31;52070;53.760;9.678;2024-03-06T04:28:29;3.89;85.23
65374;SHT31;52070;53.760;9.678;2024-03-06T04:30:56;3.89;85.27
65374;SHT31;52070;53.760;9.678;2024-03-06T04:33:23;3.87;85.20
65374;SHT31;52070;53.760;9.678;2024-03-06T04:35:50;3.86;85.27
65374;SHT31;52070;53.760;9.678;2024-03-06T04:38:18;3.93;85.07
65374;SHT31;52070;53.760;9.678;2024-03-06T04:40:46;3.96;84.68
65374;SHT31;52070;53.760;9.678;2024-03-06T04:43:13;3.97;84.32
65374;SHT31;52070;53.760;9.678;2024-03-06T04:45:40;4.01;84.09
65374;SHT31;52070;53.760;9.678;2024-03-06T04:48:07;3.94;83.96
65374;SHT31;52070;53.760;9.678;2024-03-06T04:50:34;3.94;84.05
65374;SHT31;52070;53.760;9.678;2024-03-06T04:53:01;3.99;83.80
65374;SHT31;52070;53.760;9.678;2024-03-06T04:55:28;4.01;83.55
65374;SHT31;52070;53.760;9.678;2024-03-06T04:57:57;3.94;83.32
65374;SHT31;52070;53.760;9.678;2024-03-06T05:00:24;3.83;83.52
65374;SHT31;52070;53.760;9.678;2024-03-06T05:02:52;3.79;83.74
65374;SHT31;52070;53.760;9.678;2024-03-06T05:05:19;3.73;83.45
65374;SHT31;52070;53.760;9.678;2024-03-06T05:07:46;3.70;83.54
65374;SHT31;52070;53.760;9.678;2024-03-06T05:10:13;3.75;83.30
65374;SHT31;52070;53.760;9.678;2024-03-06T05:12:41;3.65;83.31
65374;SHT31;52070;53.760;9.678;2024-03-06T05:15:10;3.55;83.43
65374;SHT31;52070;53.760;9.678;2024-03-06T05:17:37;3.39;83.72
65374;SHT31;52070;53.760;9.678;2024-03-06T05:20:05;3.32;84.07
65374;SHT31;52070;53.760;9.678;2024-03-06T05:22:33;3.25;84.23
65374;SHT31;52070;53.760;9.678;2024-03-06T05:25:00;3.25;84.36
65374;SHT31;52070;53.760;9.678;2024-03-06T05:27:27;3.16;84.52
65374;SHT31;52070;53.760;9.678;2024-03-06T05:29:54;3.12;84.84
65374;SHT31;52070;53.760;9.678;2024-03-06T05:32:22;3.09;84.86
65374;SHT31;52070;53.760;9.678;2024-03-06T05:34:49;3.12;84.93
65374;SHT31;52070;53.760;9.678;2024-03-06T05:37:16;3.26;84.85
65374;SHT31;52070;53.760;9.678;2024-03-06T05:39:44;3.26;84.75
65374;SHT31;52070;53.760;9.678;2024-03-06T05:42:12;3.19;84.51
65374;SHT31;52070;53.760;9.678;2024-03-06T05:44:39;3.14;84.63
65374;SHT31;52070;53.760;9.678;2024-03-06T05:47:06;3.04;84.41
65374;SHT31;52070;53.760;9.678;2024-03-06T05:49:34;3.03;84.61
65374;SHT31;52070;53.760;9.678;2024-03-06T05:52:01;3.03;84.79
65374;SHT31;52070;53.760;9.678;2024-03-06T05:54:28;2.95;84.85
65374;SHT31;52070;53.760;9.678;2024-03-06T05:56:59;2.90;84.88
65374;SHT31;52070;53.760;9.678;2024-03-06T05:59:26;2.84;85.00
65374;SHT31;52070;53.760;9.678;2024-03-06T06:01:54;2.79;85.18
65374;SHT31;52070;53.760;9.678;2024-03-06T06:04:21;2.74;85.31
65374;SHT31;52070;53.760;9.678;2024-03-06T06:06:50;2.71;85.34
65374;SHT31;52070;53.760;9.678;2024-03-06T06:09:17;2.68;85.43
65374;SHT31;52070;53.760;9.678;2024-03-06T06:11:44;2.68;85.46
65374;SHT31;52070;53.760;9.678;2024-03-06T06:14:13;2.61;85.49
65374;SHT31;52070;53.760;9.678;2024-03-06T06:16:42;2.54;85.54
65374;SHT31;52070;53.760;9.678;2024-03-06T06:19:09;2.53;85.83
65374;SHT31;52070;53.760;9.678;2024-03-06T06:21:36;2.46;85.86
65374;SHT31;52070;53.760;9.678;2024-03-06T06:24:05;2.47;86.03
65374;SHT31;52070;53.760;9.678;2024-03-06T06:26:32;2.43;86.10
65374;SHT31;52070;53.760;9.678;2024-03-06T06:29:00;2.43;86.16
65374;SHT31;52070;53.760;9.678;2024-03-06T06:31:27;2.40;86.26
65374;SHT31;52070;53.760;9.678;2024-03-06T06:33:54;2.36;86.30
65374;SHT31;52070;53.760;9.678;2024-03-06T06:36:21;2.39;86.30
65374;SHT31;52070;53.760;9.678;2024-03-06T06:38:48;2.36;86.39
65374;SHT31;52070;53.760;9.678;2024-03-06T06:41:17;2.30;86.56
65374;SHT31;52070;53.760;9.678;2024-03-06T06:43:45;2.30;86.56
65374;SHT31;52070;53.760;9.678;2024-03-06T06:46:12;2.30;86.67
65374;SHT31;52070;53.760;9.678;2024-03-06T06:48:39;2.34;86.77
65374;SHT31;52070;53.760;9.678;2024-03-06T06:51:05;2.36;86.78
65374;SHT31;52070;53.760;9.678;2024-03-06T06:53:33;2.36;86.78
65374;SHT31;52070;53.760;9.678;2024-03-06T06:56:00;2.37;86.82
65374;SHT31;52070;53.760;9.678;2024-03-06T06:58:28;2.40;86.86
65374;SHT31;52070;53.760;9.678;2024-03-06T07:00:55;2.50;86.93
65374;SHT31;52070;53.760;9.678;2024-03-06T07:03:22;2.54;87.09
65374;SHT31;52070;53.760;9.678;2024-03-06T07:05:55;2.60;87.08
65374;SHT31;52070;53.760;9.678;2024-03-06T07:08:22;2.61;87.09
65374;SHT31;52070;53.760;9.678;2024-03-06T07:10:49;2.70;87.06
65374;SHT31;52070;53.760;9.678;2024-03-06T07:13:16;2.94;86.82
65374;SHT31;52070;53.760;9.678;2024-03-06T07:15:46;3.01;86.41
65374;SHT31;52070;53.760;9.678;2024-03-06T07:18:13;3.01;86.09
65374;SHT31;52070;53.760;9.678;2024-03-06T07:20:40;3.11;86.03
65374;SHT31;52070;53.760;9.678;2024-03-06T07:23:07;3.28;85.78
65374;SHT31;52070;53.760;9.678;2024-03-06T07:25:34;3.31;85.35
65374;SHT31;52070;53.760;9.678;2024-03-06T07:28:02;3.38;85.09
65374;SHT31;52070;53.760;9.678;2024-03-06T07:30:29;3.46;84.84
65374;SHT31;52070;53.760;9.678;2024-03-06T07:32:58;3.52;84.54
65374;SHT31;52070;53.760;9.678;2024-03-06T07:35:25;3.79;83.87
65374;SHT31;52070;53.760;9.678;2024-03-06T07:37:52;3.82;83.34
65374;SHT31;52070;53.760;9.678;2024-03-06T07:40:19;3.83;83.23
65374;SHT31;52070;53.760;9.678;2024-03-06T07:42:46;3.87;83.15
65374;SHT31;52070;53.760;9.678;2024-03-06T07:45:13;4.01;82.82
65374;SHT31;52070;53.760;9.678;2024-03-06T07:47:40;4.16;81.65
65374;SHT31;52070;53.760;9.678;2024-03-06T07:50:10;4.24;80.95
65374;SHT31;52070;53.760;9.678;2024-03-06T07:52:38;4.27;80.47
65374;SHT31;52070;53.760;9.678;2024-03-06T07:55:05;4.23;80.68
65374;SHT31;52070;53.760;9.678;2024-03-06T07:57:32;4.23;80.89
65374;SHT31;52070;53.760;9.678;2024-03-06T07:59:59;4.31;80.80
65374;SHT31;52070;53.760;9.678;2024-03-06T08:02:27;4.41;80.58
65374;SHT31;52070;53.760;9.678;2024-03-06T08:04:54;4.53;80.15
65374;SHT31;52070;53.760;9.678;2024-03-06T08:07:22;4.58;79.10
65374;SHT31;52070;53.760;9.678;2024-03-06T08:09:49;4.58;78.63
65374;SHT31;52070;53.760;9.678;2024-03-06T08:12:16;4.69;78.43
65374;SHT31;52070;53.760;9.678;2024-03-06T08:14:43;4.75;78.40
65374;SHT31;52070;53.760;9.678;2024-03-06T08:17:10;4.78;78.19
65374;SHT31;52070;53.760;9.678;2024-03-06T08:19:38;4.88;77.71
65374;SHT31;52070;53.760;9.678;2024-03-06T08:22:05;4.91;76.97
65374;SHT31;52070;53.760;9.678;2024-03-06T08:24:33;5.02;76.66
65374;SHT31;52070;53.760;9.678;2024-03-06T08:27:00;5.00;76.80
65374;SHT31;52070;53.760;9.678;2024-03-06T08:29:27;4.99;77.22
65374;SHT31;52070;53.760;9.678;2024-03-06T08:31:54;4.99;77.00
65374;SHT31;52070;53.760;9.678;2024-03-06T08:34:23;5.11;76.39
65374;SHT31;52070;53.760;9.678;2024-03-06T08:36:52;5.11;76.35
65374;SHT31;52070;53.760;9.678;2024-03-06T08:39:21;5.13;76.01
65374;SHT31;52070;53.760;9.678;2024-03-06T08:41:49;5.29;74.60
65374;SHT31;52070;53.760;9.678;2024-03-06T08:44:16;5.37;75.66
65374;SHT31;52070;53.760;9.678;2024-03-06T08:46:43;5.43;73.98
65374;SHT31;52070;53.760;9.678;2024-03-06T08:49:10;5.56;74.09
65374;SHT31;52070;53.760;9.678;2024-03-06T08:51:37;5.59;74.23
65374;SHT31;52070;53.760;9.678;2024-03-06T08:54:04;5.63;75.07
65374;SHT31;52070;53.760;9.678;2024-03-06T08:56:31;5.75;74.97
65374;SHT31;52070;53.760;9.678;2024-03-06T08:59:01;5.78;73.70
65374;SHT31;52070;53.760;9.678;2024-03-06T09:01:29;5.75;72.86
65374;SHT31;52070;53.760;9.678;2024-03-06T09:03:56;5.94;74.05
65374;SHT31;52070;53.760;9.678;2024-03-06T09:06:23;6.20;73.39
65374;SHT31;52070;53.760;9.678;2024-03-06T09:08:50;6.39;72.99
65374;SHT31;52070;53.760;9.678;2024-03-06T09:11:17;6.48;72.19
65374;SHT31;52070;53.760;9.678;2024-03-06T09:13:44;6.10;70.90
65374;SHT31;52070;53.760;9.678;2024-03-06T09:16:12;6.12;72.26
65374;SHT31;52070;53.760;9.678;2024-03-06T09:18:39;6.31;72.56
65374;SHT31;52070;53.760;9.678;2024-03-06T09:21:06;6.39;71.17
65374;SHT31;52070;53.760;9.678;2024-03-06T09:23:33;6.42;70.90
65374;SHT31;52070;53.760;9.678;2024-03-06T09:26:00;6.44;70.60
65374;SHT31;52070;53.760;9.678;2024-03-06T09:28:27;6.39;70.08
65374;SHT31;52070;53.760;9.678;2024-03-06T09:30:54;6.48;70.77
65374;SHT31;52070;53.760;9.678;2024-03-06T09:33:24;6.48;71.32
65374;SHT31;52070;53.760;9.678;2024-03-06T09:35:51;6.38;70.43
65374;SHT31;52070;53.760;9.678;2024-03-06T09:38:18;6.52;71.63
65374;SHT31;52070;53.760;9.678;2024-03-06T09:40:45;6.92;70.91
65374;SHT31;52070;53.760;9.678;2024-03-06T09:43:12;7.03;69.07
65374;SHT31;52070;53.760;9.678;2024-03-06T09:45:39;7.06;69.89
65374;SHT31;52070;53.760;9.678;2024-03-06T09:48:08;7.09;67.87
65374;SHT31;52070;53.760;9.678;2024-03-06T09:50:37;6.95;68.64
65374;SHT31;52070;53.760;9.678;2024-03-06T09:53:08;7.06;68.97
65374;SHT31;52070;53.760;9.678;2024-03-06T09:55:35;7.51;68.78
65374;SHT31;52070;53.760;9.678;2024-03-06T09:58:04;7.46;67.55
65374;SHT31;52070;53.760;9.678;2024-03-06T10:00:31;7.17;67.05
65374;SHT31;52070;53.760;9.678;2024-03-06T10:03:00;7.34;68.77
65374;SHT31;52070;53.760;9.678;2024-03-06T10:05:29;7.65;69.45
65374;SHT31;52070;53.760;9.678;2024-03-06T10:08:00;8.30;68.32
65374;SHT31;52070;53.760;9.678;2024-03-06T10:10:27;8.35;64.03
65374;SHT31;52070;53.760;9.678;2024-03-06T10:12:54;9.00;66.09
65374;SHT31;52070;53.760;9.678;2024-03-06T10:15:22;9.59;64.57
65374;SHT31;52070;53.760;9.678;2024-03-06T10:17:52;9.53;60.73
65374;SHT31;52070;53.760;9.678;2024-03-06T10:20:20;9.61;60.40
65374;SHT31;52070;53.760;9.678;2024-03-06T10:22:48;9.58;62.33
65374;SHT31;52070;53.760;9.678;2024-03-06T10:25:19;9.97;61.93
65374;SHT31;52070;53.760;9.678;2024-03-06T10:27:47;10.04;60.94
65374;SHT31;52070;53.760;9.678;2024-03-06T10:30:23;10.33;58.92
65374;SHT31;52070;53.760;9.678;2024-03-06T10:32:53;10.46;58.96
65374;SHT31;52070;53.760;9.678;2024-03-06T10:35:20;10.79;60.66
65374;SHT31;52070;53.760;9.678;2024-03-06T10:37:48;11.18;58.99
65374;SHT31;52070;53.760;9.678;2024-03-06T10:40:16;11.42;56.32
65374;SHT31;52070;53.760;9.678;2024-03-06T10:42:46;11.33;54.37
65374;SHT31;52070;53.760;9.678;2024-03-06T10:45:14;11.05;53.98
65374;SHT31;52070;53.760;9.678;2024-03-06T10:47:45;10.10;55.86
65374;SHT31;52070;53.760;9.678;2024-03-06T10:50:15;10.57;59.72
65374;SHT31;52070;53.760;9.678;2024-03-06T10:52:44;10.87;56.34
65374;SHT31;52070;53.760;9.678;2024-03-06T10:55:12;10.68;59.43
65374;SHT31;52070;53.760;9.678;2024-03-06T10:57:41;10.87;58.23
65374;SHT31;52070;53.760;9.678;2024-03-06T11:00:11;11.23;57.84
65374;SHT31;52070;53.760;9.678;2024-03-06T11:02:46;11.39;53.65
65374;SHT31;52070;53.760;9.678;2024-03-06T11:05:14;11.47;56.73
65374;SHT31;52070;53.760;9.678;2024-03-06T11:07:42;11.28;54.01
65374;SHT31;52070;53.760;9.678;2024-03-06T11:10:09;10.95;53.67
65374;SHT31;52070;53.760;9.678;2024-03-06T11:12:42;11.28;55.97
65374;SHT31;52070;53.760;9.678;2024-03-06T11:15:15;11.65;54.23
65374;SHT31;52070;53.760;9.678;2024-03-06T11:17:42;11.72;51.57
65374;SHT31;52070;53.760;9.678;2024-03-06T11:20:15;11.94;52.49
65374;SHT31;52070;53.760;9.678;2024-03-06T11:23:04;12.41;53.75
65374;SHT31;52070;53.760;9.678;2024-03-06T11:26:02;12.88;52.52
65374;SHT31;52070;53.760;9.678;2024-03-06T11:28:30;12.14;53.80
65374;SHT31;52070;53.760;9.678;2024-03-06T11:31:01;12.78;55.51
65374;SHT31;52070;53.760;9.678;2024-03-06T11:33:34;13.03;50.09
65374;SHT31;52070;53.760;9.678;2024-03-06T11:36:15;12.67;49.04
65374;SHT31;52070;53.760;9.678;2024-03-06T11:38:46;12.17;52.89
65374;SHT31;52070;53.760;9.678;2024-03-06T11:41:13;12.27;51.75
65374;SHT31;52070;53.760;9.678;2024-03-06T11:43:44;12.45;51.07
65374;SHT31;52070;53.760;9.678;2024-03-06T11:46:14;12.54;51.30
65374;SHT31;52070;53.760;9.678;2024-03-06T11:48:43;12.17;51.30
65374;SHT31;52070;53.760;9.678;2024-03-06T11:51:11;12.41;52.18
65374;SHT31;52070;53.760;9.678;2024-03-06T11:53:38;12.82;54.33
65374;SHT31;52070;53.760;9.678;2024-03-06T11:56:10;12.99;50.45
65374;SHT31;52070;53.760;9.678;2024-03-06T11:58:37;12.61;51.22
65374;SHT31;52070;53.760;9.678;2024-03-06T12:01:04;12.72;52.67
65374;SHT31;52070;53.760;9.678;2024-03-06T12:03:33;12.64;53.12
65374;SHT31;52070;53.760;9.678;2024-03-06T12:06:00;12.62;52.03
65374;SHT31;52070;53.760;9.678;2024-03-06T12:08:27;13.06;50.75
65374;SHT31;52070;53.760;9.678;2024-03-06T12:10:54;13.38;50.16
65374;SHT31;52070;53.760;9.678;2024-03-06T12:13:23;13.10;49.98
65374;SHT31;52070;53.760;9.678;2024-03-06T12:15:50;13.03;51.23
65374;SHT31;52070;53.760;9.678;2024-03-06T12:18:17;12.21;51.02
65374;SHT31;52070;53.760;9.678;2024-03-06T12:20:46;11.94;52.46
65374;SHT31;52070;53.760;9.678;2024-03-06T12:23:21;11.93;53.21
65374;SHT31;52070;53.760;9.678;2024-03-06T12:25:49;12.13;53.39
65374;SHT31;52070;53.760;9.678;2024-03-06T12:28:16;11.32;53.56
65374;SHT31;52070;53.760;9.678;2024-03-06T12:30:43;11.22;54.10
65374;SHT31;52070;53.760;9.678;2024-03-06T12:33:10;11.08;56.22
65374;SHT31;52070;53.760;9.678;2024-03-06T12:35:43;11.46;54.13
65374;SHT31;52070;53.760;9.678;2024-03-06T12:38:14;11.51;52.83
65374;SHT31;52070;53.760;9.678;2024-03-06T12:40:42;11.08;54.52
65374;SHT31;52070;53.760;9.678;2024-03-06T12:43:09;11.62;54.74
65374;SHT31;52070;53.760;9.678;2024-03-06T12:45:36;11.33;53.21
65374;SHT31;52070;53.760;9.678;2024-03-06T12:48:05;11.08;55.26
65374;SHT31;52070;53.760;9.678;2024-03-06T12:50:32;11.91;55.29
65374;SHT31;52070;53.760;9.678;2024-03-06T12:52:59;12.04;53.44
65374;SHT31;52070;53.760;9.678;2024-03-06T12:55:28;11.65;52.80
65374;SHT31;52070;53.760;9.678;2024-03-06T12:57:55;11.52;54.11
65374;SHT31;52070;53.760;9.678;2024-03-06T13:00:22;11.49;54.01
65374;SHT31;52070;53.760;9.678;2024-03-06T13:02:49;11.07;53.55
65374;SHT31;52070;53.760;9.678;2024-03-06T13:05:17;11.80;55.12
65374;SHT31;52070;53.760;9.678;2024-03-06T13:07:45;11.97;56.27
65374;SHT31;52070;53.760;9.678;2024-03-06T13:10:12;13.00;52.17
65374;SHT31;52070;53.760;9.678;2024-03-06T13:12:40;12.87;50.19
65374;SHT31;52070;53.760;9.678;2024-03-06T13:15:08;12.65;50.36
65374;SHT31;52070;53.760;9.678;2024-03-06T13:17:35;11.84;51.99
65374;SHT31;52070;53.760;9.678;2024-03-06T13:20:03;10.77;54.28
65374;SHT31;52070;53.760;9.678;2024-03-06T13:22:30;10.47;57.06
65374;SHT31;52070;53.760;9.678;2024-03-06T13:24:57;10.54;56.46
65374;SHT31;52070;53.760;9.678;2024-03-06T13:27:24;10.53;56.13
65374;SHT31;52070;53.760;9.678;2024-03-06T13:29:52;10.12;56.08
65374;SHT31;52070;53.760;9.678;2024-03-06T13:32:19;9.96;57.57
65374;SHT31;52070;53.760;9.678;2024-03-06T13:34:46;9.68;57.68
65374;SHT31;52070;53.760;9.678;2024-03-06T13:37:14;9.46;58.61
65374;SHT31;52070;53.760;9.678;2024-03-06T13:39:42;9.46;59.24
65374;SHT31;52070;53.760;9.678;2024-03-06T13:42:09;9.35;59.39
65374;SHT31;52070;53.760;9.678;2024-03-06T13:44:36;9.32;60.46
65374;SHT31;52070;53.760;9.678;2024-03-06T13:47:05;9.07;60.31
65374;SHT31;52070;53.760;9.678;2024-03-06T13:49:35;9.00;60.19
65374;SHT31;52070;53.760;9.678;2024-03-06T13:52:03;9.15;60.49
65374;SHT31;52070;53.760;9.678;2024-03-06T13:54:31;9.43;59.89
65374;SHT31;52070;53.760;9.678;2024-03-06T13:56:58;9.85;59.71
65374;SHT31;52070;53.760;9.678;2024-03-06T13:59:28;10.32;56.97
65374;SHT31;52070;53.760;9.678;2024-03-06T14:01:55;10.51;56.25
65374;SHT31;52070;53.760;9.678;2024-03-06T14:04:24;10.61;56.72
65374;SHT31;52070;53.760;9.678;2024-03-06T14:06:51;10.34;57.35
65374;SHT31;52070;53.760;9.678;2024-03-06T14:09:18;10.46;57.31
65374;SHT31;52070;53.760;9.678;2024-03-06T14:11:45;10.78;57.00
65374;SHT31;52070;53.760;9.678;2024-03-06T14:14:12;10.69;55.56
65374;SHT31;52070;53.760;9.678;2024-03-06T14:16:39;10.41;57.48
65374;SHT31;52070;53.760;9.678;2024-03-06T14:19:06;10.17;56.81
65374;SHT31;52070;53.760;9.678;2024-03-06T14:21:35;10.53;56.52
65374;SHT31;52070;53.760;9.678;2024-03-06T14:24:03;10.69;56.27
65374;SHT31;52070;53.760;9.678;2024-03-06T14:26:32;10.89;56.45
65374;SHT31;52070;53.760;9.678;2024-03-06T14:28:59;11.04;55.98
65374;SHT31;52070;53.760;9.678;2024-03-06T14:31:27;11.44;53.99
65374;SHT31;52070;53.760;9.678;2024-03-06T14:33:54;11.69;54.46
65374;SHT31;52070;53.760;9.678;2024-03-06T14:36:21;12.10;53.70
65374;SHT31;52070;53.760;9.678;2024-03-06T14:38:52;12.27;53.11
65374;SHT31;52070;53.760;9.678;2024-03-06T14:41:19;12.31;51.33
65374;SHT31;52070;53.760;9.678;2024-03-06T14:43:46;12.25;51.54
65374;SHT31;52070;53.760;9.678;2024-03-06T14:46:13;12.16;52.03
65374;SHT31;52070;53.760;9.678;2024-03-06T14:48:40;12.08;52.87
65374;SHT31;52070;53.760;9.678;2024-03-06T14:51:07;12.00;53.13
65374;SHT31;52070;53.760;9.678;2024-03-06T14:53:34;12.03;52.43
65374;SHT31;52070;53.760;9.678;2024-03-06T14:56:03;12.21;53.62
65374;SHT31;52070;53.760;9.678;2024-03-06T14:58:30;12.07;53.28
65374;SHT31;52070;53.760;9.678;2024-03-06T15:00:57;12.24;51.32
65374;SHT31;52070;53.760;9.678;2024-03-06T15:03:24;12.17;50.89
65374;SHT31;52070;53.760;9.678;2024-03-06T15:05:51;12.00;52.52
65374;SHT31;52070;53.760;9.678;2024-03-06T15:08:18;12.16;51.94
65374;SHT31;52070;53.760;9.678;2024-03-06T15:10:45;12.24;52.49
65374;SHT31;52070;53.760;9.678;2024-03-06T15:13:13;12.23;52.24
65374;SHT31;52070;53.760;9.678;2024-03-06T15:15:42;12.14;51.81
65374;SHT31;52070;53.760;9.678;2024-03-06T15:18:09;11.72;53.58
65374;SHT31;52070;53.760;9.678;2024-03-06T15:20:36;11.93;52.14
65374;SHT31;52070;53.760;9.678;2024-03-06T15:23:03;11.33;53.38
65374;SHT31;52070;53.760;9.678;2024-03-06T15:25:30;11.39;54.27
65374;SHT31;52070;53.760;9.678;2024-03-06T15:27:57;11.22;54.25
65374;SHT31;52070;53.760;9.678;2024-03-06T15:30:26;10.72;55.26
65374;SHT31;52070;53.760;9.678;2024-03-06T15:32:54;11.02;55.58
65374;SHT31;52070;53.760;9.678;2024-03-06T15:35:21;11.16;54.51
65374;SHT31;52070;53.760;9.678;2024-03-06T15:37:49;11.36;53.07
65374;SHT31;52070;53.760;9.678;2024-03-06T15:40:16;11.22;53.91
65374;SHT31;52070;53.760;9.678;2024-03-06T15:42:43;10.74;54.37
65374;SHT31;52070;53.760;9.678;2024-03-06T15:45:12;10.79;53.86
65374;SHT31;52070;53.760;9.678;2024-03-06T15:47:40;10.57;54.92